Time;durP1;ratioP1;P1;durP2;ratioP2;P2;SDS_P1;SDS_P2;PMS_P1;PMS_P2;Temp;Humidity;BMP_temperature;BMP_pressure;BME280_temperature;BME280_humidity;BME280_pressure;Samples;Min_cycle;Max_cycle;Signal;HPM_P1;HPM_P2
2021/11/15 00:00:01;;;;;;;16.58;9.15;;;6.40;99.90;;;;;;4980080;28;20049;-87
2021/11/15 00:02:27;;;;;;;24.05;12.90;;;6.30;99.90;;;;;;4980109;28;20022;-88
2021/11/15 00:04:53;;;;;;;16.65;10.65;;;6.40;99.90;;;;;;4979911;28;20034;-88
2021/11/15 00:07:19;;;;;;;24.70;13.80;;;6.40;99.90;;;;;;4979710;28;20112;-88
2021/11/15 00:09:45;;;;;;;21.63;12.13;;;6.40;99.90;;;;;;4979807;28;20462;-87
2021/11/15 00:12:12;;;;;;;29.25;14.00;;;6.40;99.90;;;;;;4997249;28;20036;-87
2021/11/15 00:14:38;;;;;;;25.35;14.57;;;6.40;99.90;;;;;;4979856;28;20026;-87
2021/11/15 00:17:04;;;;;;;18.33;9.57;;;6.40;99.90;;;;;;4980406;28;20476;-88
2021/11/15 00:19:30;;;;;;;19.65;10.77;;;6.40;99.90;;;;;;4979499;28;20146;-87
2021/11/15 00:21:56;;;;;;;14.98;8.45;;;6.40;99.90;;;;;;4979606;28;20109;-87
2021/11/15 00:24:22;;;;;;;21.50;10.68;;;6.50;99.90;;;;;;4979356;28;20381;-87
2021/11/15 00:26:47;;;;;;;16.52;8.77;;;6.50;99.90;;;;;;4980072;28;20026;-88
2021/11/15 00:29:13;;;;;;;17.45;9.50;;;6.50;99.90;;;;;;4979685;28;20154;-88
2021/11/15 00:31:39;;;;;;;14.13;9.85;;;6.50;99.90;;;;;;4979466;28;20031;-87
2021/11/15 00:34:05;;;;;;;15.63;8.10;;;6.60;99.90;;;;;;4997025;28;20069;-87
2021/11/15 00:36:30;;;;;;;16.38;8.25;;;6.60;99.90;;;;;;4979467;28;20071;-88
2021/11/15 00:38:56;;;;;;;16.85;8.48;;;6.70;99.90;;;;;;4979186;28;20541;-88
2021/11/15 00:41:22;;;;;;;14.95;8.35;;;6.70;99.90;;;;;;4979328;28;20026;-88
2021/11/15 00:43:48;;;;;;;15.95;7.93;;;6.80;99.90;;;;;;4979390;28;20162;-87
2021/11/15 00:46:13;;;;;;;18.05;9.05;;;6.80;99.90;;;;;;4979112;28;20074;-88
2021/11/15 00:48:39;;;;;;;17.27;9.63;;;6.80;99.90;;;;;;4996515;28;20026;-87
2021/11/15 00:51:06;;;;;;;13.80;7.25;;;6.90;99.90;;;;;;4979313;28;20030;-87
2021/11/15 00:53:32;;;;;;;14.30;7.60;;;6.90;99.90;;;;;;4978985;28;20030;-88
2021/11/15 00:55:58;;;;;;;15.02;9.27;;;7.00;99.90;;;;;;4978845;28;20045;-87
2021/11/15 00:58:24;;;;;;;15.60;7.53;;;7.00;99.90;;;;;;4979033;28;20035;-87
2021/11/15 01:00:50;;;;;;;14.80;8.43;;;7.00;99.90;;;;;;4996293;28;20030;-88
2021/11/15 01:03:16;;;;;;;16.25;7.88;;;7.00;99.90;;;;;;4978938;28;20026;-87
2021/11/15 01:05:49;;;;;;;13.60;8.57;;;7.00;99.90;;;;;;4996171;28;20030;-87
2021/11/15 01:08:17;;;;;;;16.70;8.48;;;7.00;99.90;;;;;;4979408;28;20129;-87
2021/11/15 01:10:46;;;;;;;13.70;7.93;;;7.00;99.90;;;;;;4978826;28;20066;-87
2021/11/15 01:13:12;;;;;;;20.95;9.60;;;7.10;99.90;;;;;;4978538;28;20470;-87
2021/11/15 01:15:39;;;;;;;20.77;7.82;;;7.10;99.90;;;;;;4979009;28;20026;-88
2021/11/15 01:18:07;;;;;;;18.75;10.63;;;7.10;99.90;;;;;;4979546;28;20093;-88
2021/11/15 01:20:34;;;;;;;16.58;7.50;;;7.20;99.90;;;;;;4996467;28;20124;-88
2021/11/15 01:23:01;;;;;;;14.43;7.13;;;7.20;99.90;;;;;;4978676;28;20114;-87
2021/11/15 01:25:27;;;;;;;16.48;8.25;;;7.20;99.90;;;;;;4996441;28;20022;-88
2021/11/15 01:27:54;;;;;;;16.60;8.27;;;7.20;99.90;;;;;;4978701;28;20397;-88
2021/11/15 01:30:22;;;;;;;14.27;9.15;;;7.20;99.90;;;;;;4978626;28;20030;-87
2021/11/15 01:32:48;;;;;;;16.10;8.18;;;7.20;99.90;;;;;;4978429;28;20049;-87
2021/11/15 01:35:14;;;;;;;15.98;8.25;;;7.20;99.90;;;;;;4978359;28;20152;-88
2021/11/15 01:37:41;;;;;;;14.60;8.25;;;7.20;99.90;;;;;;4978280;28;20382;-87
2021/11/15 01:40:10;;;;;;;15.90;8.60;;;7.30;99.90;;;;;;4995638;28;20038;-87
2021/11/15 01:42:36;;;;;;;18.88;10.30;;;7.20;99.90;;;;;;4978347;28;20058;-87
2021/11/15 01:45:04;;;;;;;17.75;10.82;;;7.20;99.90;;;;;;4995602;28;20022;-87
2021/11/15 01:47:30;;;;;;;21.35;10.80;;;7.20;99.90;;;;;;4978245;28;20037;-87
2021/11/15 01:49:56;;;;;;;17.88;9.57;;;7.20;99.90;;;;;;4978003;28;20456;-88
2021/11/15 01:52:22;;;;;;;20.08;12.07;;;7.10;99.90;;;;;;4977967;28;20033;-87
2021/11/15 01:54:48;;;;;;;21.77;9.98;;;7.10;99.90;;;;;;4978369;28;20109;-88
2021/11/15 01:57:14;;;;;;;20.60;10.63;;;7.10;99.90;;;;;;4978595;28;20062;-88
2021/11/15 01:59:40;;;;;;;28.80;14.75;;;7.00;99.90;;;;;;4977995;28;20493;-88
2021/11/15 02:02:06;;;;;;;26.83;13.63;;;7.00;99.90;;;;;;4977826;28;20029;-87
2021/11/15 02:04:32;;;;;;;25.95;14.23;;;6.90;99.90;;;;;;4977418;28;20069;-88
2021/11/15 02:06:58;;;;;;;32.30;16.60;;;6.90;99.90;;;;;;4976940;28;20046;-88
2021/11/15 02:09:24;;;;;;;30.30;18.95;;;6.80;99.90;;;;;;4994957;28;20031;-88
2021/11/15 02:11:52;;;;;;;35.75;22.63;;;6.70;99.90;;;;;;4977697;28;20053;-87
2021/11/15 02:14:17;;;;;;;44.80;22.27;;;6.60;99.90;;;;;;4977716;28;20034;-87
2021/11/15 02:16:43;;;;;;;44.65;24.00;;;6.40;99.90;;;;;;4977532;28;20454;-87
2021/11/15 02:19:09;;;;;;;44.70;21.98;;;6.30;99.90;;;;;;4977500;28;20126;-87
2021/11/15 02:21:34;;;;;;;39.63;19.25;;;6.20;99.90;;;;;;4978106;28;20030;-87
2021/11/15 02:24:00;;;;;;;45.15;25.85;;;6.20;99.90;;;;;;4977406;28;20462;-88
2021/11/15 02:26:26;;;;;;;44.80;24.35;;;6.10;99.90;;;;;;4994860;28;20066;-87
2021/11/15 02:28:53;;;;;;;51.95;25.33;;;6.00;99.90;;;;;;4994849;28;20054;-87
2021/11/15 02:31:23;;;;;;;47.75;25.88;;;6.00;99.90;;;;;;4977048;28;20041;-88
2021/11/15 02:33:51;;;;;;;41.05;22.17;;;5.90;99.90;;;;;;4977485;28;20034;-87
2021/11/15 02:36:19;;;;;;;51.17;26.23;;;5.90;99.90;;;;;;4995334;28;20058;-87
2021/11/15 02:38:47;;;;;;;53.55;26.42;;;5.80;99.90;;;;;;4977047;28;20026;-87
2021/11/15 02:41:14;;;;;;;37.53;20.23;;;5.80;99.90;;;;;;4977328;28;20062;-88
2021/11/15 02:43:39;;;;;;;41.63;21.27;;;5.80;99.90;;;;;;4977382;28;20430;-88
2021/11/15 02:46:05;;;;;;;43.15;21.40;;;5.80;99.90;;;;;;4976859;28;20060;-87
2021/11/15 02:48:31;;;;;;;28.63;17.80;;;5.70;99.90;;;;;;4976959;28;20037;-87
2021/11/15 02:50:57;;;;;;;34.83;18.83;;;5.80;99.90;;;;;;4977308;28;20026;-87
2021/11/15 02:53:23;;;;;;;32.08;18.13;;;5.80;99.90;;;;;;4976926;28;20026;-88
2021/11/15 02:55:49;;;;;;;29.45;17.02;;;5.80;99.90;;;;;;4994539;28;20032;-87
2021/11/15 02:58:15;;;;;;;38.97;17.70;;;5.80;99.90;;;;;;4976743;28;20022;-88
2021/11/15 03:00:52;;;;;;;30.15;16.95;;;5.80;99.90;;;;;;4994034;28;20031;-88
2021/11/15 03:03:19;;;;;;;22.88;12.13;;;5.80;99.90;;;;;;4977372;28;20429;-88
2021/11/15 03:05:48;;;;;;;31.00;16.35;;;5.80;99.90;;;;;;4994357;28;20479;-87
2021/11/15 03:08:16;;;;;;;33.80;17.90;;;5.90;99.90;;;;;;4994087;28;20041;-88
2021/11/15 03:10:43;;;;;;;33.42;18.27;;;5.90;99.90;;;;;;4976821;28;20068;-88
2021/11/15 03:13:14;;;;;;;31.02;18.15;;;5.90;99.90;;;;;;4976809;28;20030;-88
2021/11/15 03:15:45;;;;;;;32.53;16.48;;;5.90;99.90;;;;;;4977562;28;20030;-88
2021/11/15 03:18:25;;;;;;;35.72;19.15;;;5.90;99.90;;;;;;4996547;28;20050;-87
2021/11/15 03:20:55;;;;;;;32.88;16.55;;;5.90;99.90;;;;;;4980938;28;20488;-87
2021/11/15 03:23:24;;;;;;;45.42;21.02;;;5.80;99.90;;;;;;4980720;28;20037;-87
2021/11/15 03:25:51;;;;;;;37.13;20.02;;;5.80;99.90;;;;;;4998255;28;20030;-87
2021/11/15 03:28:20;;;;;;;52.28;20.40;;;5.80;99.90;;;;;;4980464;28;20050;-87
2021/11/15 03:30:49;;;;;;;28.85;16.02;;;5.70;99.90;;;;;;4980708;28;20461;-87
2021/11/15 03:33:15;;;;;;;27.77;14.90;;;5.70;99.90;;;;;;4980430;28;20077;-87
2021/11/15 03:35:41;;;;;;;26.50;14.27;;;5.80;99.90;;;;;;4980640;28;20030;-87
2021/11/15 03:38:08;;;;;;;22.15;10.80;;;5.70;99.90;;;;;;4980397;28;20381;-87
2021/11/15 03:40:34;;;;;;;23.88;13.02;;;5.80;99.90;;;;;;4980441;28;20457;-87
2021/11/15 03:43:02;;;;;;;17.45;12.15;;;5.80;99.90;;;;;;4997715;28;20030;-88
2021/11/15 03:45:30;;;;;;;32.90;16.45;;;5.90;99.90;;;;;;4997937;28;20027;-87
2021/11/15 03:47:57;;;;;;;28.55;15.30;;;5.90;99.90;;;;;;4980288;28;20125;-87
2021/11/15 03:50:24;;;;;;;28.92;15.68;;;5.90;99.90;;;;;;4980168;28;20033;-87
2021/11/15 03:52:50;;;;;;;26.33;16.50;;;5.90;99.90;;;;;;4980167;28;20061;-88
2021/11/15 03:55:18;;;;;;;33.67;18.30;;;5.80;99.90;;;;;;4997685;28;20034;-88
2021/11/15 03:57:45;;;;;;;27.95;16.38;;;5.80;99.90;;;;;;4980953;28;20046;-88
2021/11/15 04:00:14;;;;;;;28.85;14.10;;;5.80;99.90;;;;;;4980799;28;20478;-88
2021/11/15 04:02:41;;;;;;;31.95;17.08;;;5.80;99.90;;;;;;4980445;28;20211;-87
2021/11/15 04:05:09;;;;;;;31.80;15.70;;;5.80;99.90;;;;;;4979882;28;20081;-87
2021/11/15 04:07:39;;;;;;;27.83;14.02;;;5.80;99.90;;;;;;4980465;28;20026;-87
2021/11/15 04:10:10;;;;;;;22.20;11.23;;;5.80;99.90;;;;;;4997937;28;20066;-88
2021/11/15 04:12:37;;;;;;;22.05;11.75;;;5.80;99.90;;;;;;4997345;28;20085;-87
2021/11/15 04:15:03;;;;;;;20.33;11.32;;;5.80;99.90;;;;;;4980290;28;20026;-87
2021/11/15 04:17:29;;;;;;;26.80;14.05;;;5.80;99.90;;;;;;4979852;28;20027;-88
2021/11/15 04:19:55;;;;;;;21.65;13.57;;;5.90;99.90;;;;;;4997226;28;20076;-88
2021/11/15 04:22:21;;;;;;;20.05;10.73;;;5.90;99.90;;;;;;4980052;28;20037;-87
2021/11/15 04:24:47;;;;;;;26.20;13.38;;;5.80;99.90;;;;;;4997121;28;20100;-87
2021/11/15 04:27:13;;;;;;;20.08;11.82;;;5.90;99.90;;;;;;4979558;28;20034;-87
2021/11/15 04:29:40;;;;;;;26.42;15.77;;;5.90;99.90;;;;;;4978366;28;20101;-88
2021/11/15 04:32:06;;;;;;;25.27;14.93;;;5.90;99.90;;;;;;4979294;28;20100;-86
2021/11/15 04:34:32;;;;;;;23.13;12.68;;;5.90;99.90;;;;;;4979359;28;20026;-87
2021/11/15 04:36:59;;;;;;;26.83;16.48;;;5.90;99.90;;;;;;4979336;28;20169;-88
2021/11/15 04:39:24;;;;;;;29.27;17.67;;;5.90;99.90;;;;;;4979227;28;20030;-88
2021/11/15 04:41:50;;;;;;;20.88;12.93;;;5.90;99.90;;;;;;4979259;28;20539;-88
2021/11/15 04:44:16;;;;;;;19.33;12.48;;;5.80;99.90;;;;;;4979467;28;20053;-87
2021/11/15 04:46:42;;;;;;;27.95;14.15;;;5.80;99.90;;;;;;4979485;28;20458;-87
2021/11/15 04:49:08;;;;;;;24.13;11.75;;;5.80;99.90;;;;;;4979137;28;20030;-88
2021/11/15 04:51:34;;;;;;;21.90;11.60;;;5.80;99.90;;;;;;4996807;28;20117;-87
2021/11/15 04:54:00;;;;;;;18.63;11.23;;;5.80;99.90;;;;;;4979368;28;20121;-87
2021/11/15 04:56:26;;;;;;;25.25;14.73;;;5.80;99.90;;;;;;4978930;28;20458;-87
2021/11/15 04:58:52;;;;;;;27.60;15.45;;;5.90;99.90;;;;;;4979263;28;20026;-87
2021/11/15 05:01:18;;;;;;;21.90;11.77;;;5.90;99.90;;;;;;4979146;28;20041;-88
2021/11/15 05:03:44;;;;;;;20.88;12.32;;;5.90;99.90;;;;;;4978477;28;20034;-87
2021/11/15 05:06:09;;;;;;;17.75;8.95;;;6.00;99.90;;;;;;4980114;28;20077;-88
2021/11/15 05:08:35;;;;;;;24.95;13.88;;;6.00;99.90;;;;;;4978895;28;20373;-88
2021/11/15 05:11:02;;;;;;;28.13;14.05;;;6.00;99.90;;;;;;4979104;28;20030;-87
2021/11/15 05:13:27;;;;;;;22.67;12.00;;;6.00;99.90;;;;;;4996640;28;20033;-87
2021/11/15 05:15:53;;;;;;;21.42;11.00;;;6.00;99.90;;;;;;4995047;28;20026;-88
2021/11/15 05:18:19;;;;;;;15.93;9.13;;;6.00;99.90;;;;;;4978952;28;20026;-88
2021/11/15 05:20:44;;;;;;;22.75;12.15;;;6.10;99.90;;;;;;4978470;28;20039;-87
2021/11/15 05:23:10;;;;;;;27.67;10.73;;;6.10;99.90;;;;;;4978784;28;20030;-87
2021/11/15 05:25:36;;;;;;;25.67;13.05;;;6.10;99.90;;;;;;4978685;28;20026;-87
2021/11/15 05:28:02;;;;;;;18.30;8.93;;;6.20;99.90;;;;;;4978159;28;20081;-88
2021/11/15 05:30:28;;;;;;;23.17;12.00;;;6.20;99.90;;;;;;4978451;28;20034;-87
2021/11/15 05:32:55;;;;;;;24.95;11.95;;;6.20;99.90;;;;;;4977890;28;20497;-87
2021/11/15 05:35:24;;;;;;;20.13;9.77;;;6.10;99.90;;;;;;4995810;28;20030;-87
2021/11/15 05:37:52;;;;;;;22.67;12.45;;;6.20;99.90;;;;;;4978054;28;20041;-87
2021/11/15 05:40:19;;;;;;;22.35;13.15;;;6.20;99.90;;;;;;4977351;28;20420;-87
2021/11/15 05:42:45;;;;;;;22.63;12.93;;;6.20;99.90;;;;;;4977766;28;20030;-87
2021/11/15 05:45:11;;;;;;;19.15;11.75;;;6.20;99.90;;;;;;4977929;28;20453;-87
2021/11/15 05:47:37;;;;;;;19.33;10.45;;;6.20;99.90;;;;;;4978360;28;20026;-87
2021/11/15 05:50:06;;;;;;;21.90;9.60;;;6.20;99.90;;;;;;4977636;28;20537;-87
2021/11/15 05:52:34;;;;;;;34.60;12.73;;;6.30;99.90;;;;;;4977476;28;20026;-88
2021/11/15 05:54:59;;;;;;;27.42;15.10;;;6.30;99.90;;;;;;4977601;28;20034;-87
2021/11/15 05:57:25;;;;;;;24.13;13.23;;;6.30;99.90;;;;;;4996146;28;20452;-87
2021/11/15 05:59:51;;;;;;;25.08;14.60;;;6.30;99.90;;;;;;4977044;28;20084;-87
2021/11/15 06:02:17;;;;;;;22.02;11.50;;;6.30;99.90;;;;;;4978010;28;20026;-88
2021/11/15 06:04:43;;;;;;;23.13;13.25;;;6.30;99.90;;;;;;4978584;28;20031;-87
2021/11/15 06:07:08;;;;;;;27.27;12.35;;;6.30;99.80;;;;;;4976869;28;20022;-88
2021/11/15 06:09:34;;;;;;;26.23;10.15;;;6.30;99.90;;;;;;4977191;28;20109;-88
2021/11/15 06:12:00;;;;;;;19.55;11.52;;;6.30;99.90;;;;;;4977476;28;20053;-87
2021/11/15 06:14:26;;;;;;;20.85;11.57;;;6.30;99.80;;;;;;4994148;28;20442;-88
2021/11/15 06:16:52;;;;;;;17.90;10.07;;;6.30;99.80;;;;;;4994341;28;20028;-88
2021/11/15 06:19:18;;;;;;;26.45;14.57;;;6.30;99.80;;;;;;4984706;28;20469;-88
2021/11/15 06:21:43;;;;;;;23.65;10.95;;;6.30;99.70;;;;;;4996320;28;20030;-88
2021/11/15 06:24:10;;;;;;;18.77;9.77;;;6.30;99.90;;;;;;5013671;28;20030;-88
2021/11/15 06:26:36;;;;;;;18.52;8.57;;;6.30;99.90;;;;;;5013679;28;20485;-86
2021/11/15 06:29:02;;;;;;;15.40;7.10;;;6.40;99.90;;;;;;4994756;28;20077;-88
2021/11/15 06:31:28;;;;;;;14.23;8.45;;;6.40;99.90;;;;;;4995398;28;20045;-87
2021/11/15 06:33:53;;;;;;;16.00;9.13;;;6.50;99.90;;;;;;4996155;28;20409;-88
2021/11/15 06:36:24;;;;;;;19.80;9.00;;;6.60;99.90;;;;;;5015557;28;20044;-88
2021/11/15 06:38:53;;;;;;;19.50;10.88;;;6.60;99.90;;;;;;4997415;28;20377;-87
2021/11/15 06:41:20;;;;;;;19.23;12.25;;;6.60;99.70;;;;;;4996249;28;20034;-88
2021/11/15 06:43:46;;;;;;;18.30;10.38;;;6.60;99.60;;;;;;4995052;28;20036;-88
2021/11/15 06:46:14;;;;;;;14.45;9.20;;;6.70;99.60;;;;;;4995716;28;20026;-88
2021/11/15 06:48:41;;;;;;;14.60;8.63;;;6.70;99.80;;;;;;4995776;28;20493;-87
2021/11/15 06:51:11;;;;;;;20.02;9.55;;;6.70;99.60;;;;;;4995245;28;20033;-88
2021/11/15 06:53:39;;;;;;;19.55;9.48;;;6.80;99.40;;;;;;4994870;28;20040;-88
2021/11/15 06:56:06;;;;;;;17.02;7.90;;;6.80;99.40;;;;;;4996264;28;20026;-88
2021/11/15 06:58:34;;;;;;;18.98;9.95;;;6.90;99.30;;;;;;4994816;28;20042;-87
2021/11/15 07:01:00;;;;;;;16.58;10.57;;;6.80;99.00;;;;;;4995579;28;20030;-87
2021/11/15 07:03:26;;;;;;;22.70;11.32;;;6.80;99.10;;;;;;4995265;28;20444;-87
2021/11/15 07:05:52;;;;;;;19.33;10.98;;;6.80;98.90;;;;;;4995574;28;20029;-87
2021/11/15 07:08:18;;;;;;;21.52;11.65;;;6.80;98.90;;;;;;4994705;28;20026;-89
2021/11/15 07:10:46;;;;;;;16.60;10.18;;;6.80;99.00;;;;;;4994804;28;20026;-88
2021/11/15 07:13:15;;;;;;;28.05;12.93;;;6.80;99.00;;;;;;4995460;28;20457;-88
2021/11/15 07:15:44;;;;;;;19.92;10.50;;;6.80;99.10;;;;;;4996174;28;20026;-88
2021/11/15 07:18:10;;;;;;;20.45;10.98;;;6.80;99.20;;;;;;4994907;28;20036;-88
2021/11/15 07:20:36;;;;;;;22.15;12.18;;;6.90;98.90;;;;;;4994653;28;20429;-88
2021/11/15 07:23:02;;;;;;;23.27;11.65;;;6.80;99.00;;;;;;4994819;28;20033;-88
2021/11/15 07:25:28;;;;;;;23.75;12.20;;;6.90;98.90;;;;;;4994502;28;20022;-87
2021/11/15 07:27:56;;;;;;;21.38;9.77;;;6.90;98.70;;;;;;4994898;28;20107;-89
2021/11/15 07:30:22;;;;;;;26.73;10.25;;;6.80;98.70;;;;;;4995598;28;20091;-88
2021/11/15 07:32:50;;;;;;;19.42;10.77;;;6.90;98.80;;;;;;4995596;28;20026;-87
2021/11/15 07:35:16;;;;;;;19.23;10.45;;;6.90;98.90;;;;;;4995302;28;20034;-89
2021/11/15 07:37:42;;;;;;;21.67;12.73;;;6.80;98.90;;;;;;4995497;28;20022;-87
2021/11/15 07:40:10;;;;;;;19.17;11.00;;;6.90;98.70;;;;;;4995249;28;20030;-88
2021/11/15 07:42:36;;;;;;;25.92;14.25;;;6.80;98.80;;;;;;4994799;28;20030;-88
2021/11/15 07:45:04;;;;;;;22.65;14.00;;;6.90;98.80;;;;;;4995983;28;20030;-88
2021/11/15 07:47:31;;;;;;;17.55;10.68;;;6.90;98.60;;;;;;4994599;28;20036;-88
2021/11/15 07:49:57;;;;;;;19.75;10.68;;;6.90;98.70;;;;;;5012170;28;20026;-88
2021/11/15 07:52:23;;;;;;;21.25;13.20;;;6.90;98.50;;;;;;4994507;28;20029;-88
2021/11/15 07:54:49;;;;;;;24.20;14.00;;;6.90;98.40;;;;;;4995164;28;20050;-88
2021/11/15 07:57:15;;;;;;;26.58;14.45;;;6.90;98.10;;;;;;4995009;28;20397;-87
2021/11/15 07:59:42;;;;;;;23.42;13.32;;;6.80;98.10;;;;;;4994948;28;20477;-88
2021/11/15 08:02:10;;;;;;;19.40;10.88;;;6.80;98.20;;;;;;4994634;28;20034;-91
2021/11/15 08:04:35;;;;;;;29.70;14.25;;;6.70;98.40;;;;;;4994693;28;20030;-88
2021/11/15 08:07:01;;;;;;;24.70;13.93;;;6.70;98.40;;;;;;5015367;28;20030;-88
2021/11/15 08:09:27;;;;;;;35.22;13.32;;;6.80;98.60;;;;;;4995097;28;20030;-88
2021/11/15 08:11:59;;;;;;;23.40;11.48;;;6.80;98.40;;;;;;5016368;28;20080;-88
2021/11/15 08:14:25;;;;;;;19.83;10.50;;;6.90;97.70;;;;;;4996255;28;20030;-90
2021/11/15 08:16:53;;;;;;;17.00;9.57;;;6.90;98.00;;;;;;5014423;28;20429;-87
2021/11/15 08:19:19;;;;;;;19.25;12.05;;;7.00;97.80;;;;;;4997722;28;20033;-89
2021/11/15 08:21:49;;;;;;;18.45;10.75;;;7.00;97.80;;;;;;4998077;28;20523;-90
2021/11/15 08:24:18;;;;;;;18.65;9.93;;;7.10;97.90;;;;;;5015248;28;20030;-89
2021/11/15 08:26:46;;;;;;;18.52;9.80;;;7.20;97.90;;;;;;4997686;28;20040;-90
2021/11/15 08:29:14;;;;;;;21.63;10.30;;;7.30;98.10;;;;;;5015609;28;20060;-90
2021/11/15 08:31:44;;;;;;;19.92;11.45;;;7.30;97.20;;;;;;4974255;28;20100;-90
2021/11/15 08:34:11;;;;;;;19.45;11.45;;;7.40;97.40;;;;;;4963065;28;20033;-91
2021/11/15 08:36:43;;;;;;;19.48;11.65;;;7.50;97.40;;;;;;4997135;28;20057;-90
2021/11/15 08:39:30;;;;;;;24.05;12.27;;;7.50;96.90;;;;;;5015241;28;20030;-89
2021/11/15 08:41:59;;;;;;;24.30;11.65;;;7.60;96.60;;;;;;4993648;28;20077;-90
2021/11/15 08:44:27;;;;;;;17.67;9.57;;;7.60;96.40;;;;;;4974589;28;20038;-90
2021/11/15 08:46:54;;;;;;;21.15;11.98;;;7.70;96.50;;;;;;4991596;28;20052;-90
2021/11/15 08:49:26;;;;;;;21.05;12.52;;;7.70;96.10;;;;;;4995791;28;20049;-90
2021/11/15 08:51:52;;;;;;;24.25;11.52;;;7.70;95.40;;;;;;4997876;28;20030;-89
2021/11/15 08:54:21;;;;;;;38.03;10.88;;;7.80;95.20;;;;;;4998027;28;20037;-90
2021/11/15 08:56:50;;;;;;;18.05;9.18;;;7.80;95.20;;;;;;4998321;28;20025;-89
2021/11/15 08:59:16;;;;;;;21.75;12.45;;;7.80;95.20;;;;;;4996850;28;20458;-88
2021/11/15 09:01:43;;;;;;;26.17;11.18;;;7.80;94.70;;;;;;5013098;28;20050;-86
2021/11/15 09:04:09;;;;;;;17.15;10.13;;;7.90;94.70;;;;;;4995683;28;20026;-88
2021/11/15 09:06:38;;;;;;;21.92;11.07;;;7.90;94.50;;;;;;4997555;28;20029;-88
2021/11/15 09:09:09;;;;;;;21.30;9.75;;;8.00;94.70;;;;;;4994123;28;20034;-84
2021/11/15 09:11:36;;;;;;;15.07;9.05;;;8.00;94.40;;;;;;5013087;28;20080;-84
2021/11/15 09:14:02;;;;;;;15.55;8.40;;;8.20;94.30;;;;;;5011211;28;20057;-83
2021/11/15 09:16:29;;;;;;;16.15;9.52;;;8.20;94.00;;;;;;5010836;28;20030;-83
2021/11/15 09:18:55;;;;;;;19.08;9.90;;;8.30;93.60;;;;;;5003085;28;20032;-83
2021/11/15 09:21:21;;;;;;;22.63;11.48;;;8.40;93.60;;;;;;4994245;28;20086;-82
2021/11/15 09:23:48;;;;;;;19.13;12.15;;;8.40;93.10;;;;;;4989674;28;20113;-84
2021/11/15 09:26:18;;;;;;;20.02;11.52;;;8.40;91.50;;;;;;4993247;28;20362;-82
2021/11/15 09:28:44;;;;;;;18.30;9.52;;;8.40;92.50;;;;;;4994471;28;20770;-84
2021/11/15 09:31:11;;;;;;;20.13;10.35;;;8.50;92.40;;;;;;5013215;28;20033;-82
2021/11/15 09:33:37;;;;;;;18.88;10.57;;;8.50;92.10;;;;;;4996217;28;20033;-85
2021/11/15 09:36:04;;;;;;;14.25;8.55;;;8.50;91.90;;;;;;5014109;28;20518;-84
2021/11/15 09:38:30;;;;;;;16.60;9.25;;;8.50;92.20;;;;;;4996904;28;20033;-85
2021/11/15 09:40:59;;;;;;;18.45;10.15;;;8.60;91.70;;;;;;5010147;28;20038;-84
2021/11/15 09:43:35;;;;;;;17.42;11.25;;;8.60;91.30;;;;;;4994207;28;20476;-85
2021/11/15 09:46:03;;;;;;;19.48;9.65;;;8.70;90.70;;;;;;4996030;28;20311;-84
2021/11/15 09:48:34;;;;;;;13.32;7.32;;;8.70;90.20;;;;;;5011123;28;20034;-86
2021/11/15 09:51:02;;;;;;;18.48;9.80;;;8.70;90.00;;;;;;5006240;28;20157;-85
2021/11/15 09:53:29;;;;;;;15.80;9.45;;;8.70;90.50;;;;;;4996125;28;20092;-85
2021/11/15 09:55:56;;;;;;;13.13;8.05;;;8.80;90.10;;;;;;4995585;28;20141;-84
2021/11/15 09:58:23;;;;;;;12.48;8.25;;;8.80;89.50;;;;;;5003714;28;20461;-84
2021/11/15 10:00:49;;;;;;;12.15;7.95;;;8.90;89.10;;;;;;4976764;28;20053;-86
2021/11/15 10:03:16;;;;;;;14.88;8.05;;;8.90;88.30;;;;;;4976868;28;20622;-84
2021/11/15 10:05:44;;;;;;;14.15;8.50;;;8.90;86.60;;;;;;4995162;28;20102;-84
2021/11/15 10:08:12;;;;;;;21.23;9.32;;;8.80;88.00;;;;;;4990833;28;20041;-88
2021/11/15 10:10:47;;;;;;;10.13;6.85;;;8.90;87.10;;;;;;4981646;28;20033;-83
2021/11/15 10:13:34;;;;;;;11.95;7.32;;;9.00;87.00;;;;;;4986745;28;20057;-84
2021/11/15 10:16:09;;;;;;;11.65;6.47;;;9.00;85.80;;;;;;4994297;28;20367;-84
2021/11/15 10:18:45;;;;;;;12.70;6.35;;;9.00;84.70;;;;;;5003252;28;20034;-84
2021/11/15 10:21:33;;;;;;;11.98;6.85;;;9.00;84.20;;;;;;5007111;28;20089;-84
2021/11/15 10:24:13;;;;;;;8.15;4.97;;;9.00;82.80;;;;;;4988356;28;20076;-85
2021/11/15 10:26:51;;;;;;;10.35;6.55;;;9.00;83.60;;;;;;5000346;28;20530;-84
2021/11/15 10:29:36;;;;;;;10.75;6.45;;;9.10;82.60;;;;;;4996351;28;20042;-85
2021/11/15 10:32:06;;;;;;;9.90;7.22;;;9.10;83.60;;;;;;4980939;28;20037;-84
2021/11/15 10:34:38;;;;;;;11.32;7.25;;;9.10;82.80;;;;;;5007949;28;20026;-84
2021/11/15 10:37:15;;;;;;;11.10;5.28;;;9.10;78.60;;;;;;4988784;28;20157;-84
2021/11/15 10:39:56;;;;;;;11.27;6.70;;;9.10;81.10;;;;;;5006637;28;20033;-87
2021/11/15 10:42:36;;;;;;;7.80;5.05;;;9.10;80.30;;;;;;4986800;28;20052;-85
2021/11/15 10:45:11;;;;;;;7.72;6.05;;;9.00;80.30;;;;;;4998971;28;20052;-84
2021/11/15 10:47:49;;;;;;;10.38;6.68;;;9.10;78.80;;;;;;5008429;28;20026;-83
2021/11/15 10:50:30;;;;;;;14.38;6.57;;;9.10;78.90;;;;;;4995211;28;20041;-82
2021/11/15 10:53:24;;;;;;;11.15;6.07;;;9.10;79.40;;;;;;5012767;28;20021;-83
2021/11/15 10:56:13;;;;;;;11.98;6.95;;;9.10;78.70;;;;;;4994027;28;20030;-84
2021/11/15 10:58:40;;;;;;;12.65;7.57;;;9.00;78.20;;;;;;4984595;28;20038;-83
2021/11/15 11:01:09;;;;;;;10.02;6.10;;;9.00;77.40;;;;;;4975943;28;20027;-83
2021/11/15 11:03:37;;;;;;;10.98;5.80;;;9.00;78.90;;;;;;4994508;28;20049;-82
2021/11/15 11:06:07;;;;;;;11.70;6.93;;;9.00;78.20;;;;;;4979224;28;20034;-83
2021/11/15 11:08:46;;;;;;;8.93;5.75;;;9.00;79.00;;;;;;5000353;28;20021;-83
2021/11/15 11:11:13;;;;;;;9.27;5.03;;;9.10;79.00;;;;;;5015277;28;20040;-82
2021/11/15 11:13:41;;;;;;;10.63;6.10;;;9.10;79.60;;;;;;5010604;28;20026;-82
2021/11/15 11:16:07;;;;;;;12.95;5.65;;;9.20;79.00;;;;;;4995241;28;20030;-82
2021/11/15 11:18:44;;;;;;;13.02;6.95;;;9.20;79.00;;;;;;4994697;28;20022;-81
2021/11/15 11:26:32;;;;;;;10.63;6.45;;;9.10;77.40;;;;;;5008800;28;20037;-82
2021/11/15 11:29:07;;;;;;;10.95;6.50;;;9.10;77.60;;;;;;4995189;28;20126;-82
2021/11/15 11:31:35;;;;;;;9.50;6.72;;;9.20;77.60;;;;;;4991714;28;20088;-82
2021/11/15 11:34:02;;;;;;;9.32;6.45;;;9.20;77.00;;;;;;4995307;28;20073;-82
2021/11/15 11:36:28;;;;;;;13.35;6.93;;;9.10;76.40;;;;;;4995365;28;20036;-82
2021/11/15 11:38:55;;;;;;;12.75;7.30;;;9.10;76.10;;;;;;5014195;28;20492;-81
2021/11/15 11:41:21;;;;;;;14.27;7.25;;;9.00;75.70;;;;;;4998887;28;20477;-82
2021/11/15 11:43:49;;;;;;;11.40;7.43;;;9.00;75.90;;;;;;4995128;28;20460;-82
2021/11/15 11:46:17;;;;;;;20.88;8.55;;;9.00;74.90;;;;;;4987860;28;20026;-82
2021/11/15 11:48:49;;;;;;;14.25;7.78;;;8.90;74.40;;;;;;4996151;28;20495;-82
2021/11/15 11:51:16;;;;;;;12.23;7.00;;;8.90;75.20;;;;;;4999087;28;20064;-82
2021/11/15 11:53:43;;;;;;;10.25;6.93;;;8.80;75.90;;;;;;5002157;28;20385;-82
2021/11/15 11:56:18;;;;;;;13.68;6.90;;;8.90;75.90;;;;;;5016302;28;20461;-83
2021/11/15 11:58:47;;;;;;;18.38;8.02;;;8.90;76.00;;;;;;5016223;28;20102;-81
2021/11/15 12:01:24;;;;;;;14.07;7.40;;;8.80;75.70;;;;;;5016190;28;20037;-83
2021/11/15 12:04:10;;;;;;;14.13;7.00;;;8.90;76.00;;;;;;5016105;28;20034;-83
2021/11/15 12:06:36;;;;;;;9.77;6.22;;;8.90;74.90;;;;;;4978842;28;20038;-83
2021/11/15 12:09:02;;;;;;;11.57;6.63;;;9.00;75.90;;;;;;4978342;28;20061;-83
2021/11/15 12:11:31;;;;;;;12.82;6.75;;;9.00;76.20;;;;;;4978638;28;20058;-83
2021/11/15 12:13:57;;;;;;;14.77;7.43;;;9.20;76.20;;;;;;4978990;28;20108;-83
2021/11/15 12:16:58;;;;;;;13.27;8.20;;;9.20;75.10;;;;;;4979063;28;20061;-83
2021/11/15 12:19:31;;;;;;;15.13;7.32;;;9.20;73.70;;;;;;4978315;28;20092;-83
2021/11/15 12:22:18;;;;;;;14.18;6.47;;;9.10;74.50;;;;;;4978951;28;20073;-83
2021/11/15 12:25:06;;;;;;;13.50;8.00;;;9.10;74.50;;;;;;4978490;28;20080;-83
2021/11/15 12:27:46;;;;;;;10.13;6.25;;;9.10;74.80;;;;;;4978881;28;20038;-83
2021/11/15 12:30:18;;;;;;;13.32;8.93;;;9.00;75.60;;;;;;4978825;28;20088;-83
2021/11/15 12:33:04;;;;;;;10.27;7.05;;;8.90;75.70;;;;;;4978811;28;20034;-83
2021/11/15 12:35:57;;;;;;;14.18;7.50;;;8.90;76.00;;;;;;4978634;28;20033;-84
2021/11/15 12:38:51;;;;;;;18.08;8.88;;;8.90;75.10;;;;;;4978820;28;20157;-85
2021/11/15 12:41:16;;;;;;;11.85;7.03;;;8.90;76.00;;;;;;4992977;28;20030;-84
2021/11/15 12:44:09;;;;;;;12.43;7.22;;;8.90;75.80;;;;;;5016013;28;20048;-84
2021/11/15 12:46:50;;;;;;;10.77;6.72;;;8.90;75.70;;;;;;4996731;28;20037;-84
2021/11/15 12:49:23;;;;;;;12.23;6.93;;;8.70;74.90;;;;;;4997826;28;20124;-83
2021/11/15 12:52:16;;;;;;;14.35;8.32;;;8.60;74.60;;;;;;4997338;28;20030;-83